createdAt,value
2022-12-26T00:00:09.824Z,95504.00
2022-12-26T00:01:09.807Z,95502.00
2022-12-26T00:02:09.797Z,95502.00
2022-12-26T00:03:09.924Z,95500.00
2022-12-26T00:04:49.948Z,95498.00
2022-12-26T00:05:09.738Z,95498.00
2022-12-26T00:54:38.992Z,95537.00
2022-12-26T00:55:39.923Z,95537.00
2022-12-26T00:56:39.894Z,95539.00
2022-12-26T00:57:39.836Z,95541.00
2022-12-26T00:58:39.794Z,95541.00
2022-12-26T00:59:39.762Z,95545.00
2022-12-26T01:00:39.747Z,95543.00
2022-12-26T01:01:39.948Z,95541.00
2022-12-26T01:02:39.956Z,95541.00
2022-12-26T01:03:39.560Z,95541.00
2022-12-26T01:04:39.551Z,95543.00
2022-12-26T01:05:39.471Z,95549.00
2022-12-26T01:06:39.418Z,95547.00
2022-12-26T01:08:21.583Z,95547.00
2022-12-26T01:08:39.312Z,95547.00
2022-12-26T01:09:39.266Z,95547.00
2022-12-26T01:10:39.239Z,95551.00
2022-12-26T01:11:39.162Z,95549.00
2022-12-26T01:12:39.151Z,95549.00
2022-12-26T01:13:39.063Z,95547.00
2022-12-26T01:14:39.011Z,95547.00
2022-12-26T01:15:38.961Z,95545.00
2022-12-26T01:16:39.019Z,95545.00
2022-12-26T01:17:38.865Z,95547.00
2022-12-26T01:18:38.815Z,95549.00
2022-12-26T01:19:38.768Z,95551.00
2022-12-26T01:20:38.738Z,95551.00
2022-12-26T01:21:38.699Z,95549.00
2022-12-26T01:22:38.621Z,95553.00
2022-12-26T01:23:38.581Z,95555.00
2022-12-26T01:24:38.521Z,95559.00
2022-12-26T01:25:38.470Z,95557.00
2022-12-26T01:26:38.450Z,95557.00
2022-12-26T01:27:38.369Z,95555.00
2022-12-26T01:28:38.319Z,95555.00
2022-12-26T01:29:38.267Z,95555.00
2022-12-26T01:30:38.223Z,95555.00
2022-12-26T01:31:38.244Z,95557.00
2022-12-26T01:32:38.124Z,95561.00
2022-12-26T01:33:38.079Z,95559.00
2022-12-26T01:34:38.026Z,95561.00
2022-12-26T01:35:37.971Z,95563.00
2022-12-26T01:36:37.935Z,95563.00
2022-12-26T01:37:37.891Z,95563.00
2022-12-26T01:38:37.813Z,95563.00
2022-12-26T01:39:37.770Z,95561.00
2022-12-26T01:40:37.712Z,95565.00
2022-12-26T01:41:37.667Z,95565.00
2022-12-26T01:42:37.633Z,95565.00
2022-12-26T01:43:37.569Z,95565.00
2022-12-26T01:44:37.504Z,95563.00
2022-12-26T01:45:37.487Z,95565.00
2022-12-26T01:46:37.416Z,95563.00
2022-12-26T01:47:37.357Z,95563.00
2022-12-26T01:48:37.340Z,95565.00
2022-12-26T01:49:37.255Z,95563.00
2022-12-26T01:50:37.217Z,95565.00
2022-12-26T01:51:37.168Z,95565.00
2022-12-26T01:52:37.118Z,95565.00
2022-12-26T01:53:37.076Z,95565.00
2022-12-26T01:54:42.386Z,95565.00
2022-12-26T01:55:36.987Z,95567.00
2022-12-26T01:56:36.946Z,95567.00
2022-12-26T01:57:36.902Z,95567.00
2022-12-26T01:58:36.906Z,95567.00
2022-12-26T01:59:36.818Z,95565.00
2022-12-26T02:00:36.797Z,95563.00
2022-12-26T02:01:36.842Z,95565.00
2022-12-26T02:02:36.806Z,95559.00
2022-12-26T02:03:36.631Z,95561.00
2022-12-26T02:04:36.576Z,95563.00
2022-12-26T02:05:36.541Z,95563.00
2022-12-26T02:06:36.491Z,95563.00
2022-12-26T02:07:36.440Z,95561.00
2022-12-26T02:08:36.403Z,95559.00
2022-12-26T02:09:36.394Z,95561.00
2022-12-26T02:10:36.316Z,95561.00
2022-12-26T02:11:36.267Z,95559.00
2022-12-26T02:12:39.021Z,95565.00
2022-12-26T02:13:36.178Z,95563.00
2022-12-26T02:14:36.153Z,95557.00
2022-12-26T02:15:36.130Z,95555.00
2022-12-26T02:16:36.094Z,95557.00
2022-12-26T02:17:35.990Z,95557.00
2022-12-26T02:18:35.948Z,95557.00
2022-12-26T02:19:35.907Z,95559.00
2022-12-26T02:20:35.877Z,95559.00
2022-12-26T02:21:35.817Z,95557.00
2022-12-26T02:22:35.757Z,95557.00
2022-12-26T02:23:35.688Z,95557.00
2022-12-26T02:24:35.647Z,95555.00
2022-12-26T02:25:35.592Z,95553.00
2022-12-26T02:26:35.553Z,95555.00
2022-12-26T02:27:35.526Z,95555.00
2022-12-26T02:28:35.441Z,95561.00
2022-12-26T02:29:35.397Z,95563.00
2022-12-26T02:30:35.393Z,95563.00
2022-12-26T02:31:35.312Z,95565.00
2022-12-26T02:32:35.240Z,95567.00
2022-12-26T02:33:35.185Z,95563.00
2022-12-26T02:34:35.136Z,95567.00
2022-12-26T02:35:35.091Z,95561.00
2022-12-26T02:36:35.025Z,95565.00
2022-12-26T02:37:34.970Z,95565.00
2022-12-26T02:38:34.937Z,95563.00
2022-12-26T02:39:43.717Z,95561.00
2022-12-26T02:40:34.814Z,95559.00
2022-12-26T02:41:34.770Z,95557.00
2022-12-26T02:42:34.710Z,95559.00
2022-12-26T02:43:34.658Z,95559.00
2022-12-26T02:44:34.604Z,95559.00
2022-12-26T02:45:34.608Z,95561.00
2022-12-26T02:46:34.553Z,95563.00
2022-12-26T02:47:34.448Z,95565.00
2022-12-26T02:48:34.394Z,95563.00
2022-12-26T02:49:34.353Z,95563.00
2022-12-26T02:50:34.295Z,95563.00
2022-12-26T02:51:34.275Z,95563.00
2022-12-26T02:52:34.203Z,95565.00
2022-12-26T02:53:34.139Z,95563.00
2022-12-26T02:54:34.091Z,95565.00
2022-12-26T02:55:34.035Z,95565.00
2022-12-26T02:56:33.981Z,95567.00
2022-12-26T02:57:33.929Z,95563.00
2022-12-26T02:58:33.878Z,95563.00
2022-12-26T02:59:56.173Z,95565.00
2022-12-26T03:00:33.781Z,95563.00
2022-12-26T03:01:33.793Z,95568.00
2022-12-26T03:02:33.840Z,95567.00
2022-12-26T03:03:33.717Z,95567.00
2022-12-26T03:04:33.564Z,95568.00
2022-12-26T03:05:33.516Z,95567.00
2022-12-26T03:06:33.460Z,95568.00
2022-12-26T03:07:33.407Z,95572.00
2022-12-26T03:08:33.358Z,95574.00
2022-12-26T03:09:33.482Z,95578.00
2022-12-26T03:10:33.264Z,95576.00
2022-12-26T03:11:33.215Z,95572.00
2022-12-26T03:12:33.157Z,95572.00
2022-12-26T03:13:33.130Z,95572.00
2022-12-26T03:14:33.058Z,95568.00
2022-12-26T03:15:33.016Z,95567.00
2022-12-26T03:16:33.055Z,95568.00
2022-12-26T03:17:32.916Z,95565.00
2022-12-26T03:18:58.386Z,95565.00
2022-12-26T03:19:32.812Z,95567.00
2022-12-26T03:20:32.764Z,95568.00
2022-12-26T03:21:32.721Z,95570.00
2022-12-26T03:22:32.681Z,95567.00
2022-12-26T03:23:32.601Z,95567.00
2022-12-26T03:24:32.553Z,95565.00
2022-12-26T03:25:32.504Z,95565.00
2022-12-26T03:26:32.491Z,95568.00
2022-12-26T03:27:32.395Z,95568.00
2022-12-26T03:28:32.333Z,95572.00
2022-12-26T03:29:32.270Z,95572.00
2022-12-26T03:30:32.338Z,95568.00
2022-12-26T03:31:32.192Z,95568.00
2022-12-26T03:32:32.104Z,95568.00
2022-12-26T03:33:32.057Z,95568.00
2022-12-26T03:34:32.023Z,95567.00
2022-12-26T03:35:31.941Z,95568.00
2022-12-26T03:36:31.924Z,95572.00
2022-12-26T03:37:47.521Z,95570.00
2022-12-26T03:38:31.791Z,95572.00
2022-12-26T03:39:31.729Z,95570.00
2022-12-26T03:40:31.669Z,95574.00
2022-12-26T03:41:31.695Z,95572.00
2022-12-26T03:42:31.556Z,95574.00
2022-12-26T03:43:31.507Z,95572.00
2022-12-26T03:44:31.454Z,95572.00
2022-12-26T03:45:31.420Z,95572.00
2022-12-26T03:46:31.382Z,95567.00
2022-12-26T03:47:31.317Z,95565.00
2022-12-26T03:48:31.239Z,95567.00
2022-12-26T03:49:31.192Z,95567.00
2022-12-26T03:50:31.202Z,95565.00
2022-12-26T03:51:31.078Z,95568.00
2022-12-26T03:52:31.036Z,95568.00
2022-12-26T03:53:30.976Z,95570.00
2022-12-26T03:54:30.916Z,95568.00
2022-12-26T03:55:30.870Z,95567.00
2022-12-26T03:56:32.771Z,95568.00
2022-12-26T03:57:30.759Z,95574.00
2022-12-26T03:58:30.699Z,95572.00
2022-12-26T03:59:30.772Z,95576.00
2022-12-26T04:00:30.603Z,95576.00
2022-12-26T04:01:30.678Z,95580.00
2022-12-26T04:02:30.789Z,95576.00
2022-12-26T04:03:30.549Z,95574.00
2022-12-26T04:04:30.439Z,95574.00
2022-12-26T04:05:30.370Z,95574.00
2022-12-26T04:06:30.354Z,95576.00
2022-12-26T04:07:30.336Z,95574.00
2022-12-26T04:08:30.225Z,95576.00
2022-12-26T04:09:30.181Z,95574.00
2022-12-26T04:10:30.141Z,95576.00
2022-12-26T04:11:30.101Z,95572.00
2022-12-26T04:12:30.014Z,95574.00
2022-12-26T04:13:29.969Z,95574.00
2022-12-26T04:14:29.930Z,95574.00
2022-12-26T04:15:29.900Z,95572.00
2022-12-26T04:16:29.827Z,95570.00
2022-12-26T04:17:29.808Z,95568.00
2022-12-26T04:18:29.718Z,95567.00
2022-12-26T04:19:29.675Z,95565.00
2022-12-26T04:20:29.624Z,95563.00
2022-12-26T04:21:29.565Z,95563.00
2022-12-26T04:22:29.546Z,95563.00
2022-12-26T04:23:29.469Z,95563.00
2022-12-26T04:24:29.403Z,95563.00
2022-12-26T04:25:48.610Z,95561.00
2022-12-26T04:26:29.292Z,95561.00
2022-12-26T04:27:29.272Z,95567.00
2022-12-26T04:28:29.190Z,95567.00
2022-12-26T04:29:29.135Z,95570.00
2022-12-26T04:30:29.136Z,95568.00
2022-12-26T04:31:29.094Z,95572.00
2022-12-26T04:32:28.988Z,95574.00
2022-12-26T04:33:28.921Z,95576.00
2022-12-26T04:34:28.865Z,95574.00
2022-12-26T04:35:28.816Z,95572.00
2022-12-26T04:36:28.769Z,95567.00
2022-12-26T04:37:28.704Z,95568.00
2022-12-26T04:38:28.681Z,95570.00
2022-12-26T04:39:28.599Z,95568.00
2022-12-26T04:40:28.535Z,95567.00
2022-12-26T04:41:28.485Z,95570.00
2022-12-26T04:42:28.426Z,95570.00
2022-12-26T04:43:47.634Z,95572.00
2022-12-26T04:44:28.320Z,95572.00
2022-12-26T04:45:28.270Z,95574.00
2022-12-26T04:46:28.261Z,95574.00
2022-12-26T04:47:28.156Z,95570.00
2022-12-26T04:48:28.096Z,95570.00
2022-12-26T04:49:28.032Z,95572.00
2022-12-26T04:50:27.988Z,95570.00
2022-12-26T04:51:27.924Z,95567.00
2022-12-26T04:52:27.868Z,95567.00
2022-12-26T04:53:27.814Z,95565.00
2022-12-26T04:54:27.772Z,95565.00
2022-12-26T04:55:27.704Z,95568.00
2022-12-26T04:56:27.668Z,95568.00
2022-12-26T04:57:27.596Z,95567.00
2022-12-26T04:58:27.552Z,95570.00
2022-12-26T04:59:27.534Z,95567.00
2022-12-26T05:00:27.432Z,95565.00
2022-12-26T05:01:27.474Z,95565.00
2022-12-26T05:02:27.603Z,95565.00
2022-12-26T05:03:27.346Z,95565.00
2022-12-26T05:04:27.220Z,95563.00
2022-12-26T05:05:27.200Z,95559.00
2022-12-26T05:06:27.121Z,95561.00
2022-12-26T05:07:27.081Z,95559.00
2022-12-26T05:08:27.002Z,95555.00
2022-12-26T05:09:26.949Z,95555.00
2022-12-26T05:10:26.916Z,95557.00
2022-12-26T05:11:26.847Z,95555.00
2022-12-26T05:12:26.794Z,95555.00
2022-12-26T05:13:26.737Z,95555.00
2022-12-26T05:14:26.684Z,95557.00
2022-12-26T05:15:26.639Z,95553.00
2022-12-26T05:16:26.662Z,95555.00
2022-12-26T05:17:26.544Z,95551.00
2022-12-26T05:18:26.501Z,95549.00
2022-12-26T05:19:26.437Z,95547.00
2022-12-26T05:20:26.385Z,95547.00
2022-12-26T05:21:26.339Z,95547.00
2022-12-26T05:22:26.288Z,95549.00
2022-12-26T05:23:26.242Z,95551.00
2022-12-26T05:24:26.178Z,95553.00
2022-12-26T05:25:26.128Z,95551.00
2022-12-26T05:26:26.112Z,95551.00
2022-12-26T05:27:26.033Z,95553.00
2022-12-26T05:28:25.989Z,95559.00
2022-12-26T05:29:25.935Z,95561.00
2022-12-26T05:30:25.904Z,95563.00
2022-12-26T05:31:31.186Z,95565.00
2022-12-26T05:32:25.785Z,95561.00
2022-12-26T05:33:25.738Z,95567.00
2022-12-26T05:34:25.698Z,95563.00
2022-12-26T05:35:25.648Z,95563.00
2022-12-26T05:36:25.596Z,95565.00
2022-12-26T05:37:25.550Z,95565.00
2022-12-26T05:38:25.500Z,95567.00
2022-12-26T05:39:25.456Z,95567.00
2022-12-26T05:40:25.413Z,95567.00
2022-12-26T05:41:25.376Z,95567.00
2022-12-26T05:42:25.335Z,95570.00
2022-12-26T05:43:25.266Z,95570.00
2022-12-26T05:44:25.217Z,95570.00
2022-12-26T05:45:25.157Z,95570.00
2022-12-26T05:46:25.181Z,95572.00
2022-12-26T05:47:25.057Z,95574.00
2022-12-26T05:48:25.019Z,95574.00
2022-12-26T05:49:24.962Z,95576.00
2022-12-26T05:50:24.911Z,95576.00
2022-12-26T05:51:24.855Z,95576.00
2022-12-26T05:52:24.810Z,95572.00
2022-12-26T05:53:24.753Z,95572.00
2022-12-26T05:54:24.699Z,95570.00
2022-12-26T05:55:24.649Z,95568.00
2022-12-26T05:56:24.624Z,95570.00
2022-12-26T05:57:24.542Z,95570.00
2022-12-26T05:58:24.527Z,95572.00
2022-12-26T05:59:24.454Z,95570.00
2022-12-26T06:00:24.382Z,95570.00
2022-12-26T06:01:24.368Z,95568.00
2022-12-26T06:02:24.330Z,95568.00
2022-12-26T06:03:24.308Z,95568.00
2022-12-26T06:04:24.185Z,95572.00
2022-12-26T06:05:24.129Z,95570.00
2022-12-26T06:06:24.086Z,95568.00
2022-12-26T06:07:24.030Z,95568.00
2022-12-26T06:08:23.974Z,95565.00
2022-12-26T06:09:23.924Z,95567.00
2022-12-26T06:10:23.865Z,95563.00
2022-12-26T06:11:23.816Z,95567.00
2022-12-26T06:12:23.774Z,95565.00
2022-12-26T06:13:23.718Z,95567.00
2022-12-26T06:14:23.693Z,95567.00
2022-12-26T06:15:23.616Z,95567.00
2022-12-26T06:16:23.665Z,95563.00
2022-12-26T06:17:23.526Z,95565.00
2022-12-26T06:18:23.481Z,95567.00
2022-12-26T06:19:23.424Z,95570.00
2022-12-26T06:20:23.374Z,95572.00
2022-12-26T06:21:23.327Z,95572.00
2022-12-26T06:22:23.276Z,95574.00
2022-12-26T06:23:23.254Z,95574.00
2022-12-26T06:24:23.167Z,95578.00
2022-12-26T06:25:23.117Z,95576.00
2022-12-26T06:26:23.070Z,95574.00
2022-12-26T06:27:23.016Z,95572.00
2022-12-26T06:28:23.016Z,95570.00
2022-12-26T06:29:22.926Z,95572.00
2022-12-26T06:30:22.886Z,95572.00
2022-12-26T06:31:23.013Z,95574.00
2022-12-26T06:32:22.757Z,95574.00
2022-12-26T06:33:22.717Z,95570.00
2022-12-26T06:34:22.665Z,95572.00
2022-12-26T06:35:22.611Z,95574.00
2022-12-26T06:36:22.572Z,95572.00
2022-12-26T06:37:22.492Z,95574.00
2022-12-26T06:38:22.437Z,95574.00
2022-12-26T06:39:22.396Z,95572.00
2022-12-26T06:40:22.344Z,95568.00
2022-12-26T06:41:22.288Z,95567.00
2022-12-26T06:42:22.232Z,95567.00
2022-12-26T06:43:22.175Z,95568.00
2022-12-26T06:44:22.126Z,95568.00
2022-12-26T06:45:22.117Z,95567.00
2022-12-26T06:46:22.196Z,95570.00
2022-12-26T06:47:21.973Z,95568.00
2022-12-26T06:48:21.913Z,95570.00
2022-12-26T06:49:25.026Z,95567.00
2022-12-26T06:50:21.817Z,95563.00
2022-12-26T06:51:21.796Z,95563.00
2022-12-26T06:52:21.707Z,95565.00
2022-12-26T06:53:21.666Z,95567.00
2022-12-26T06:54:21.632Z,95567.00
2022-12-26T06:55:21.567Z,95565.00
2022-12-26T06:56:21.606Z,95567.00
2022-12-26T06:57:21.454Z,95570.00
2022-12-26T06:58:21.438Z,95567.00
2022-12-26T06:59:21.342Z,95568.00
2022-12-26T07:00:21.292Z,95568.00
2022-12-26T07:01:21.313Z,95568.00
2022-12-26T07:02:21.411Z,95568.00
2022-12-26T07:03:21.137Z,95565.00
2022-12-26T07:04:21.081Z,95565.00
2022-12-26T07:05:21.034Z,95568.00
2022-12-26T07:06:20.965Z,95568.00
2022-12-26T07:07:20.916Z,95572.00
2022-12-26T07:08:20.851Z,95572.00
2022-12-26T07:09:20.797Z,95576.00
2022-12-26T07:10:20.740Z,95580.00
2022-12-26T07:11:20.691Z,95584.00
2022-12-26T07:12:20.650Z,95586.00
2022-12-26T07:13:20.597Z,95588.00
2022-12-26T07:14:20.569Z,95588.00
2022-12-26T07:15:20.486Z,95588.00
2022-12-26T07:16:20.467Z,95588.00
2022-12-26T07:17:20.376Z,95590.00
2022-12-26T07:18:20.347Z,95588.00
2022-12-26T07:19:20.315Z,95584.00
2022-12-26T07:20:20.209Z,95582.00
2022-12-26T07:21:20.169Z,95582.00
2022-12-26T07:22:20.091Z,95580.00
2022-12-26T07:23:20.039Z,95584.00
2022-12-26T07:24:19.988Z,95586.00
2022-12-26T07:25:19.932Z,95590.00
2022-12-26T07:26:19.880Z,95588.00
2022-12-26T07:27:19.828Z,95588.00
2022-12-26T07:28:19.772Z,95590.00
2022-12-26T07:29:19.729Z,95590.00
2022-12-26T07:30:19.683Z,95590.00
2022-12-26T07:31:19.741Z,95592.00
2022-12-26T07:32:19.571Z,95590.00
2022-12-26T07:33:19.521Z,95588.00
2022-12-26T07:34:19.499Z,95590.00
2022-12-26T07:35:19.432Z,95588.00
2022-12-26T07:36:19.380Z,95588.00
2022-12-26T07:37:19.347Z,95586.00
2022-12-26T07:38:19.303Z,95586.00
2022-12-26T07:39:19.294Z,95584.00
2022-12-26T07:40:19.229Z,95582.00
2022-12-26T07:41:19.149Z,95584.00
2022-12-26T07:42:19.103Z,95590.00
2022-12-26T07:43:19.054Z,95588.00
2022-12-26T07:44:19.041Z,95590.00
2022-12-26T07:45:18.966Z,95594.00
2022-12-26T07:46:19.044Z,95596.00
2022-12-26T07:47:18.885Z,95596.00
2022-12-26T07:48:18.810Z,95596.00
2022-12-26T07:49:18.792Z,95596.00
2022-12-26T07:50:18.733Z,95598.00
2022-12-26T07:51:18.671Z,95598.00
2022-12-26T07:52:18.611Z,95594.00
2022-12-26T07:53:18.760Z,95596.00
2022-12-26T07:54:18.527Z,95596.00
2022-12-26T07:55:18.468Z,95600.00
2022-12-26T07:56:18.414Z,95604.00
2022-12-26T07:58:18.312Z,95602.00
2022-12-26T07:59:18.296Z,95598.00
2022-12-26T08:00:18.225Z,95598.00
2022-12-26T08:01:18.324Z,95608.00
2022-12-26T08:02:18.340Z,95614.00
2022-12-26T08:03:18.205Z,95616.00
2022-12-26T08:04:18.020Z,95616.00
2022-12-26T08:05:17.982Z,95614.00
2022-12-26T08:06:17.946Z,95610.00
2022-12-26T08:07:17.867Z,95614.00
2022-12-26T08:08:17.825Z,95620.00
2022-12-26T08:09:17.769Z,95625.00
2022-12-26T08:10:17.751Z,95625.00
2022-12-26T08:11:17.672Z,95622.00
2022-12-26T08:12:17.610Z,95622.00
2022-12-26T08:13:17.578Z,95622.00
2022-12-26T08:14:17.515Z,95623.00
2022-12-26T08:15:17.490Z,95625.00
2022-12-26T08:16:17.468Z,95629.00
2022-12-26T08:17:17.406Z,95631.00
2022-12-26T08:18:17.302Z,95627.00
2022-12-26T08:19:17.250Z,95625.00
2022-12-26T08:20:17.219Z,95627.00
2022-12-26T08:21:17.151Z,95625.00
2022-12-26T08:22:17.112Z,95623.00
2022-12-26T08:23:17.072Z,95623.00
2022-12-26T08:24:16.997Z,95625.00
2022-12-26T08:25:20.139Z,95625.00
2022-12-26T08:26:16.890Z,95622.00
2022-12-26T08:27:16.846Z,95625.00
2022-12-26T08:28:16.829Z,95625.00
2022-12-26T08:29:16.750Z,95627.00
2022-12-26T08:30:16.711Z,95629.00
2022-12-26T08:31:16.657Z,95631.00
2022-12-26T08:32:16.615Z,95627.00
2022-12-26T08:33:16.583Z,95629.00
2022-12-26T08:34:16.513Z,95627.00
2022-12-26T08:35:16.467Z,95629.00
2022-12-26T08:36:17.197Z,95631.00
2022-12-26T08:37:16.363Z,95635.00
2022-12-26T08:38:16.335Z,95633.00
2022-12-26T08:39:16.264Z,95631.00
2022-12-26T08:40:26.718Z,95633.00
2022-12-26T08:41:16.177Z,95631.00
2022-12-26T08:42:16.120Z,95629.00
2022-12-26T08:43:39.127Z,95627.00
2022-12-26T08:44:26.700Z,95631.00
2022-12-26T08:45:16.052Z,95633.00
2022-12-26T08:46:15.980Z,95635.00
2022-12-26T08:47:15.863Z,95633.00
2022-12-26T08:48:15.810Z,95635.00
2022-12-26T08:49:15.773Z,95633.00
2022-12-26T08:50:15.721Z,95635.00
2022-12-26T08:51:15.661Z,95641.00
2022-12-26T08:52:15.604Z,95641.00
2022-12-26T08:53:15.550Z,95637.00
2022-12-26T08:54:15.529Z,95637.00
2022-12-26T08:55:15.462Z,95637.00
2022-12-26T08:56:15.397Z,95639.00
2022-12-26T08:57:15.352Z,95635.00
2022-12-26T08:58:15.354Z,95633.00
2022-12-26T08:59:15.247Z,95631.00
2022-12-26T09:00:15.199Z,95633.00
2022-12-26T09:01:15.274Z,95635.00
2022-12-26T09:02:15.287Z,95635.00
2022-12-26T09:03:15.048Z,95631.00
2022-12-26T09:04:14.972Z,95625.00
2022-12-26T09:05:14.910Z,95623.00
2022-12-26T09:06:14.859Z,95629.00
2022-12-26T09:07:14.819Z,95631.00
2022-12-26T09:08:14.770Z,95629.00
2022-12-26T09:09:14.718Z,95623.00
2022-12-26T09:10:14.682Z,95620.00
2022-12-26T09:11:14.610Z,95622.00
2022-12-26T09:12:14.553Z,95627.00
2022-12-26T09:13:14.496Z,95627.00
2022-12-26T09:14:14.465Z,95629.00
2022-12-26T09:15:14.544Z,95627.00
2022-12-26T09:16:14.347Z,95629.00
2022-12-26T09:17:14.307Z,95629.00
2022-12-26T09:18:14.234Z,95631.00
2022-12-26T09:19:14.188Z,95631.00
2022-12-26T09:20:14.143Z,95627.00
2022-12-26T09:21:14.161Z,95625.00
2022-12-26T09:22:14.087Z,95622.00
2022-12-26T09:23:13.997Z,95622.00
2022-12-26T09:24:13.977Z,95622.00
2022-12-26T09:25:13.886Z,95620.00
2022-12-26T09:26:13.937Z,95622.00
2022-12-26T09:27:13.781Z,95618.00
2022-12-26T09:28:13.737Z,95620.00
2022-12-26T09:29:13.675Z,95618.00
2022-12-26T09:30:13.622Z,95620.00
2022-12-26T09:31:13.644Z,95618.00
2022-12-26T09:32:13.549Z,95616.00
2022-12-26T09:33:13.449Z,95616.00
2022-12-26T09:34:13.395Z,95616.00
2022-12-26T09:35:13.397Z,95614.00
2022-12-26T09:36:15.103Z,95614.00
2022-12-26T09:37:13.246Z,95614.00
2022-12-26T09:38:13.193Z,95614.00
2022-12-26T09:39:13.129Z,95614.00
2022-12-26T09:40:13.079Z,95612.00
2022-12-26T09:41:13.035Z,95610.00
2022-12-26T09:42:13.009Z,95604.00
2022-12-26T09:43:12.932Z,95606.00
2022-12-26T09:44:12.880Z,95604.00
2022-12-26T09:45:12.831Z,95602.00
2022-12-26T09:46:12.826Z,95598.00
2022-12-26T09:47:12.728Z,95594.00
2022-12-26T09:48:12.672Z,95594.00
2022-12-26T09:49:12.622Z,95590.00
2022-12-26T09:50:12.605Z,95592.00
2022-12-26T09:51:12.559Z,95594.00
2022-12-26T09:52:12.473Z,95592.00
2022-12-26T09:53:12.422Z,95592.00
2022-12-26T09:54:12.382Z,95590.00
2022-12-26T09:55:12.312Z,95590.00
2022-12-26T09:56:23.768Z,95586.00
2022-12-26T09:57:15.075Z,95584.00
2022-12-26T09:58:12.181Z,95582.00
2022-12-26T09:59:12.100Z,95580.00
2022-12-26T10:00:12.049Z,95576.00
2022-12-26T10:01:12.202Z,95572.00
2022-12-26T10:02:12.059Z,95580.00
2022-12-26T10:03:11.890Z,95576.00
2022-12-26T10:04:11.956Z,95574.00
2022-12-26T10:05:11.792Z,95572.00
2022-12-26T10:06:11.740Z,95572.00
2022-12-26T10:07:11.696Z,95574.00
2022-12-26T10:08:11.645Z,95576.00
2022-12-26T10:09:11.629Z,95572.00
2022-12-26T10:10:11.531Z,95572.00
2022-12-26T10:11:11.485Z,95572.00
2022-12-26T10:12:11.430Z,95568.00
2022-12-26T10:13:11.379Z,95567.00
2022-12-26T10:14:15.143Z,95565.00
2022-12-26T10:15:11.288Z,95561.00
2022-12-26T10:16:11.273Z,95561.00
2022-12-26T10:17:11.163Z,95559.00
2022-12-26T10:18:11.113Z,95561.00
2022-12-26T10:19:11.079Z,95557.00
2022-12-26T10:20:11.020Z,95557.00
2022-12-26T10:21:10.954Z,95551.00
2022-12-26T10:22:10.903Z,95547.00
2022-12-26T10:23:10.882Z,95553.00
2022-12-26T10:24:10.808Z,95553.00
2022-12-26T10:25:10.752Z,95553.00
2022-12-26T10:26:10.702Z,95557.00
2022-12-26T10:27:10.663Z,95557.00
2022-12-26T10:28:10.574Z,95559.00
2022-12-26T10:29:10.561Z,95559.00
2022-12-26T10:30:10.488Z,95557.00
2022-12-26T10:31:10.449Z,95553.00
2022-12-26T10:32:10.352Z,95549.00
2022-12-26T10:33:10.309Z,95553.00
2022-12-26T10:34:10.243Z,95553.00
2022-12-26T10:35:10.194Z,95555.00
2022-12-26T10:36:10.145Z,95551.00
2022-12-26T10:37:10.099Z,95539.00
2022-12-26T10:38:10.041Z,95533.00
2022-12-26T10:39:09.984Z,95531.00
2022-12-26T10:40:09.936Z,95535.00
2022-12-26T10:41:09.875Z,95543.00
2022-12-26T10:42:09.832Z,95545.00
2022-12-26T10:43:09.769Z,95539.00
2022-12-26T10:44:09.721Z,95533.00
2022-12-26T10:45:09.656Z,95527.00
2022-12-26T10:46:09.636Z,95531.00
2022-12-26T10:47:09.546Z,95537.00
2022-12-26T10:48:09.497Z,95539.00
2022-12-26T10:49:09.437Z,95535.00
2022-12-26T10:50:09.388Z,95535.00
2022-12-26T10:51:09.330Z,95537.00
2022-12-26T10:52:09.279Z,95539.00
2022-12-26T10:53:09.223Z,95541.00
2022-12-26T10:54:09.172Z,95543.00
2022-12-26T10:55:29.507Z,95543.00
2022-12-26T10:56:13.230Z,95541.00
2022-12-26T10:57:09.028Z,95535.00
2022-12-26T10:58:09.073Z,95539.00
2022-12-26T10:59:08.918Z,95539.00
2022-12-26T11:00:08.854Z,95537.00
2022-12-26T11:01:08.869Z,95531.00
2022-12-26T11:02:08.852Z,95529.00
2022-12-26T11:03:08.883Z,95521.00
2022-12-26T11:04:08.643Z,95518.00
2022-12-26T11:05:26.716Z,95516.00
2022-12-26T11:06:09.397Z,95516.00
2022-12-26T11:07:08.528Z,95514.00
2022-12-26T11:08:08.475Z,95510.00
2022-12-26T11:09:08.376Z,95508.00
2022-12-26T11:10:08.341Z,95508.00
2022-12-26T11:11:08.276Z,95508.00
2022-12-26T11:12:08.345Z,95508.00
2022-12-26T11:13:08.199Z,95508.00
2022-12-26T11:14:08.108Z,95508.00
2022-12-26T11:15:08.056Z,95510.00
2022-12-26T11:16:08.069Z,95512.00
2022-12-26T11:17:07.959Z,95510.00
2022-12-26T11:18:07.952Z,95508.00
2022-12-26T11:19:07.836Z,95506.00
2022-12-26T11:20:07.781Z,95508.00
2022-12-26T11:21:11.058Z,95508.00
2022-12-26T11:22:07.681Z,95510.00
2022-12-26T11:23:07.682Z,95510.00
2022-12-26T11:24:07.585Z,95508.00
2022-12-26T11:25:07.528Z,95512.00
2022-12-26T11:26:07.481Z,95510.00
2022-12-26T11:27:12.606Z,95508.00
2022-12-26T11:28:07.400Z,95504.00
2022-12-26T11:29:07.316Z,95498.00
2022-12-26T11:30:07.252Z,95496.00
2022-12-26T11:31:07.287Z,95494.00
2022-12-26T11:32:07.142Z,95496.00
2022-12-26T11:33:13.768Z,95496.00
2022-12-26T11:34:07.053Z,95494.00
2022-12-26T11:35:06.964Z,95494.00
2022-12-26T11:36:06.910Z,95492.00
2022-12-26T11:37:06.851Z,95492.00
2022-12-26T11:38:06.784Z,95492.00
2022-12-26T11:39:06.726Z,95496.00
2022-12-26T11:40:06.667Z,95496.00
2022-12-26T11:41:06.611Z,95490.00
2022-12-26T11:42:06.548Z,95492.00
2022-12-26T11:43:06.520Z,95488.00
2022-12-26T11:44:06.438Z,95492.00
2022-12-26T11:45:06.364Z,95492.00
2022-12-26T11:46:06.366Z,95494.00
2022-12-26T11:47:06.247Z,95490.00
2022-12-26T11:48:06.199Z,95490.00
2022-12-26T11:49:06.134Z,95488.00
2022-12-26T11:50:06.124Z,95486.00
2022-12-26T11:51:06.020Z,95484.00
2022-12-26T11:52:05.958Z,95484.00
2022-12-26T11:53:05.906Z,95486.00
2022-12-26T11:54:05.849Z,95488.00
2022-12-26T11:55:05.788Z,95484.00
2022-12-26T11:56:05.755Z,95484.00
2022-12-26T11:57:05.676Z,95482.00
2022-12-26T11:58:05.622Z,95484.00
2022-12-26T11:59:05.561Z,95480.00
2022-12-26T12:00:05.496Z,95484.00
2022-12-26T12:01:05.591Z,95486.00
2022-12-26T12:02:05.468Z,95490.00
2022-12-26T12:03:05.381Z,95486.00
2022-12-26T12:04:05.259Z,95486.00
2022-12-26T12:05:05.220Z,95484.00
2022-12-26T12:06:05.173Z,95484.00
2022-12-26T12:07:05.135Z,95482.00
2022-12-26T12:08:05.038Z,95482.00
2022-12-26T12:09:06.227Z,95480.00
2022-12-26T12:10:04.963Z,95480.00
2022-12-26T12:11:04.857Z,95478.00
2022-12-26T12:12:04.800Z,95478.00
2022-12-26T12:13:04.741Z,95474.00
2022-12-26T12:14:04.679Z,95471.00
2022-12-26T12:15:04.660Z,95467.00
2022-12-26T12:16:04.640Z,95465.00
2022-12-26T12:17:04.515Z,95467.00
2022-12-26T12:18:04.471Z,95467.00
2022-12-26T12:19:04.410Z,95467.00
2022-12-26T12:20:04.352Z,95465.00
2022-12-26T12:21:04.302Z,95465.00
2022-12-26T12:22:04.323Z,95467.00
2022-12-26T12:23:04.199Z,95467.00
2022-12-26T12:24:04.127Z,95467.00
2022-12-26T12:25:04.065Z,95469.00
2022-12-26T12:26:04.013Z,95469.00
2022-12-26T12:27:05.435Z,95469.00
2022-12-26T12:28:04.072Z,95465.00
2022-12-26T12:29:04.013Z,95461.00
2022-12-26T12:30:03.964Z,95463.00
2022-12-26T12:31:03.900Z,95469.00
2022-12-26T12:32:03.923Z,95471.00
2022-12-26T12:33:03.795Z,95465.00